sensor_id;sensor_type;location;lat;lon;timestamp;P1;durP1;ratioP1;P2;durP2;ratioP2
69542;SDS011;56762;49.494;11.768;2022-10-22T00:01:03;14.15;;;8.57;;
69542;SDS011;56762;49.494;11.768;2022-10-22T00:03:31;12.13;;;7.30;;
69542;SDS011;56762;49.494;11.768;2022-10-22T00:05:59;13.15;;;8.50;;
69542;SDS011;56762;49.494;11.768;2022-10-22T00:08:27;13.57;;;7.70;;
69542;SDS011;56762;49.494;11.768;2022-10-22T00:10:56;12.68;;;7.60;;
69542;SDS011;56762;49.494;11.768;2022-10-22T00:13:26;12.35;;;7.88;;
69542;SDS011;56762;49.494;11.768;2022-10-22T00:15:54;13.02;;;7.82;;
69542;SDS011;56762;49.494;11.768;2022-10-22T00:18:22;15.07;;;8.20;;
69542;SDS011;56762;49.494;11.768;2022-10-22T00:20:50;14.77;;;8.90;;
69542;SDS011;56762;49.494;11.768;2022-10-22T00:23:18;13.80;;;8.25;;
69542;SDS011;56762;49.494;11.768;2022-10-22T00:25:46;14.32;;;8.35;;
69542;SDS011;56762;49.494;11.768;2022-10-22T00:28:14;12.65;;;8.13;;
69542;SDS011;56762;49.494;11.768;2022-10-22T00:30:44;14.10;;;8.32;;
69542;SDS011;56762;49.494;11.768;2022-10-22T00:33:12;17.50;;;8.30;;
69542;SDS011;56762;49.494;11.768;2022-10-22T00:35:42;14.45;;;8.52;;
69542;SDS011;56762;49.494;11.768;2022-10-22T00:38:10;17.45;;;8.52;;
69542;SDS011;56762;49.494;11.768;2022-10-22T00:40:38;15.75;;;8.60;;
69542;SDS011;56762;49.494;11.768;2022-10-22T00:43:08;13.63;;;7.70;;
69542;SDS011;56762;49.494;11.768;2022-10-22T00:45:37;16.10;;;9.03;;
69542;SDS011;56762;49.494;11.768;2022-10-22T00:48:08;13.30;;;7.70;;
69542;SDS011;56762;49.494;11.768;2022-10-22T00:50:38;14.05;;;8.13;;
69542;SDS011;56762;49.494;11.768;2022-10-22T00:53:11;13.20;;;8.27;;
69542;SDS011;56762;49.494;11.768;2022-10-22T00:55:41;15.25;;;8.80;;
69542;SDS011;56762;49.494;11.768;2022-10-22T00:58:11;14.73;;;8.13;;
69542;SDS011;56762;49.494;11.768;2022-10-22T01:00:41;14.52;;;8.38;;
69542;SDS011;56762;49.494;11.768;2022-10-22T01:03:10;15.73;;;8.18;;
69542;SDS011;56762;49.494;11.768;2022-10-22T01:05:40;14.32;;;8.45;;
69542;SDS011;56762;49.494;11.768;2022-10-22T01:08:13;13.30;;;7.55;;
69542;SDS011;56762;49.494;11.768;2022-10-22T01:10:49;13.20;;;8.10;;
69542;SDS011;56762;49.494;11.768;2022-10-22T01:13:28;13.10;;;8.13;;
69542;SDS011;56762;49.494;11.768;2022-10-22T01:16:04;15.52;;;8.35;;
69542;SDS011;56762;49.494;11.768;2022-10-22T01:18:39;20.13;;;9.63;;
69542;SDS011;56762;49.494;11.768;2022-10-22T01:21:15;20.70;;;10.23;;
69542;SDS011;56762;49.494;11.768;2022-10-22T01:23:58;17.57;;;9.70;;
69542;SDS011;56762;49.494;11.768;2022-10-22T01:29:50;14.05;;;8.27;;
69542;SDS011;56762;49.494;11.768;2022-10-22T01:32:21;12.93;;;7.78;;
69542;SDS011;56762;49.494;11.768;2022-10-22T01:34:53;18.63;;;9.30;;
69542;SDS011;56762;49.494;11.768;2022-10-22T01:37:27;18.23;;;9.63;;
69542;SDS011;56762;49.494;11.768;2022-10-22T01:39:58;17.70;;;9.10;;
69542;SDS011;56762;49.494;11.768;2022-10-22T01:42:28;21.48;;;10.50;;
69542;SDS011;56762;49.494;11.768;2022-10-22T01:44:57;17.17;;;8.90;;
69542;SDS011;56762;49.494;11.768;2022-10-22T01:47:33;16.70;;;8.68;;
69542;SDS011;56762;49.494;11.768;2022-10-22T01:50:12;16.90;;;9.13;;
69542;SDS011;56762;49.494;11.768;2022-10-22T01:52:55;17.17;;;9.65;;
69542;SDS011;56762;49.494;11.768;2022-10-22T01:55:41;16.52;;;9.05;;
69542;SDS011;56762;49.494;11.768;2022-10-22T01:58:23;14.20;;;8.43;;
69542;SDS011;56762;49.494;11.768;2022-10-22T02:01:04;17.73;;;8.75;;
69542;SDS011;56762;49.494;11.768;2022-10-22T02:03:37;14.60;;;8.30;;
69542;SDS011;56762;49.494;11.768;2022-10-22T02:06:09;15.57;;;8.95;;
69542;SDS011;56762;49.494;11.768;2022-10-22T02:08:43;13.10;;;8.13;;
69542;SDS011;56762;49.494;11.768;2022-10-22T02:11:12;13.80;;;8.02;;
69542;SDS011;56762;49.494;11.768;2022-10-22T02:13:46;12.90;;;7.45;;
69542;SDS011;56762;49.494;11.768;2022-10-22T02:16:17;14.10;;;7.80;;
69542;SDS011;56762;49.494;11.768;2022-10-22T02:18:50;14.25;;;8.38;;
69542;SDS011;56762;49.494;11.768;2022-10-22T02:21:21;13.65;;;8.05;;
69542;SDS011;56762;49.494;11.768;2022-10-22T02:23:49;14.75;;;8.80;;
69542;SDS011;56762;49.494;11.768;2022-10-22T02:26:18;11.85;;;7.57;;
69542;SDS011;56762;49.494;11.768;2022-10-22T02:28:52;13.53;;;8.67;;
69542;SDS011;56762;49.494;11.768;2022-10-22T02:31:29;12.50;;;7.90;;
69542;SDS011;56762;49.494;11.768;2022-10-22T02:34:00;13.43;;;7.90;;
69542;SDS011;56762;49.494;11.768;2022-10-22T02:36:33;15.13;;;7.45;;
69542;SDS011;56762;49.494;11.768;2022-10-22T02:39:02;14.32;;;8.20;;
69542;SDS011;56762;49.494;11.768;2022-10-22T02:41:32;13.63;;;8.53;;
69542;SDS011;56762;49.494;11.768;2022-10-22T02:44:00;12.60;;;8.27;;
69542;SDS011;56762;49.494;11.768;2022-10-22T02:46:30;16.05;;;9.05;;
69542;SDS011;56762;49.494;11.768;2022-10-22T02:48:58;13.95;;;8.45;;
69542;SDS011;56762;49.494;11.768;2022-10-22T02:51:26;12.77;;;8.07;;
69542;SDS011;56762;49.494;11.768;2022-10-22T02:53:54;13.37;;;8.37;;
69542;SDS011;56762;49.494;11.768;2022-10-22T02:56:22;15.68;;;8.27;;
69542;SDS011;56762;49.494;11.768;2022-10-22T02:58:50;15.40;;;8.93;;
69542;SDS011;56762;49.494;11.768;2022-10-22T03:01:18;17.45;;;9.13;;
69542;SDS011;56762;49.494;11.768;2022-10-22T03:03:47;14.15;;;8.88;;
69542;SDS011;56762;49.494;11.768;2022-10-22T03:06:16;13.90;;;8.07;;
69542;SDS011;56762;49.494;11.768;2022-10-22T03:08:44;14.60;;;8.35;;
69542;SDS011;56762;49.494;11.768;2022-10-22T03:11:12;15.10;;;9.40;;
69542;SDS011;56762;49.494;11.768;2022-10-22T03:13:40;16.70;;;9.25;;
69542;SDS011;56762;49.494;11.768;2022-10-22T03:16:09;14.52;;;8.90;;
69542;SDS011;56762;49.494;11.768;2022-10-22T03:18:36;14.07;;;8.00;;
69542;SDS011;56762;49.494;11.768;2022-10-22T03:21:07;15.95;;;8.23;;
69542;SDS011;56762;49.494;11.768;2022-10-22T03:23:39;12.77;;;7.70;;
69542;SDS011;56762;49.494;11.768;2022-10-22T03:26:08;12.95;;;8.10;;
69542;SDS011;56762;49.494;11.768;2022-10-22T03:28:40;18.35;;;9.82;;
69542;SDS011;56762;49.494;11.768;2022-10-22T03:31:09;17.33;;;9.20;;
69542;SDS011;56762;49.494;11.768;2022-10-22T03:33:37;17.20;;;9.80;;
69542;SDS011;56762;49.494;11.768;2022-10-22T03:36:07;17.90;;;9.68;;
69542;SDS011;56762;49.494;11.768;2022-10-22T03:38:36;17.77;;;9.85;;
69542;SDS011;56762;49.494;11.768;2022-10-22T03:41:06;16.55;;;9.68;;
69542;SDS011;56762;49.494;11.768;2022-10-22T03:43:34;16.33;;;9.57;;
69542;SDS011;56762;49.494;11.768;2022-10-22T03:46:06;15.45;;;8.73;;
69542;SDS011;56762;49.494;11.768;2022-10-22T03:48:34;13.82;;;8.32;;
69542;SDS011;56762;49.494;11.768;2022-10-22T03:51:02;14.32;;;8.40;;
69542;SDS011;56762;49.494;11.768;2022-10-22T03:53:34;14.02;;;8.50;;
69542;SDS011;56762;49.494;11.768;2022-10-22T03:56:04;22.30;;;11.27;;
69542;SDS011;56762;49.494;11.768;2022-10-22T03:58:34;17.52;;;9.68;;
69542;SDS011;56762;49.494;11.768;2022-10-22T04:01:05;18.40;;;9.68;;
69542;SDS011;56762;49.494;11.768;2022-10-22T04:03:35;16.13;;;8.85;;
69542;SDS011;56762;49.494;11.768;2022-10-22T04:06:04;15.43;;;8.93;;
69542;SDS011;56762;49.494;11.768;2022-10-22T04:08:35;16.73;;;9.33;;
69542;SDS011;56762;49.494;11.768;2022-10-22T04:11:08;16.52;;;10.02;;
69542;SDS011;56762;49.494;11.768;2022-10-22T04:13:37;15.90;;;9.32;;
69542;SDS011;56762;49.494;11.768;2022-10-22T04:16:05;15.98;;;9.13;;
69542;SDS011;56762;49.494;11.768;2022-10-22T04:18:35;15.45;;;8.98;;
69542;SDS011;56762;49.494;11.768;2022-10-22T04:21:05;14.93;;;8.97;;
69542;SDS011;56762;49.494;11.768;2022-10-22T04:23:36;14.93;;;9.10;;
69542;SDS011;56762;49.494;11.768;2022-10-22T04:26:05;15.07;;;10.07;;
69542;SDS011;56762;49.494;11.768;2022-10-22T04:28:34;14.48;;;9.60;;
69542;SDS011;56762;49.494;11.768;2022-10-22T04:31:06;15.40;;;9.27;;
69542;SDS011;56762;49.494;11.768;2022-10-22T04:33:35;14.97;;;8.80;;
69542;SDS011;56762;49.494;11.768;2022-10-22T04:36:06;15.07;;;8.70;;
69542;SDS011;56762;49.494;11.768;2022-10-22T04:38:38;16.60;;;9.15;;
69542;SDS011;56762;49.494;11.768;2022-10-22T04:41:10;15.13;;;8.35;;
69542;SDS011;56762;49.494;11.768;2022-10-22T04:43:38;14.20;;;8.50;;
69542;SDS011;56762;49.494;11.768;2022-10-22T04:46:07;15.00;;;8.30;;
69542;SDS011;56762;49.494;11.768;2022-10-22T04:48:36;17.63;;;8.65;;
69542;SDS011;56762;49.494;11.768;2022-10-22T04:51:05;14.85;;;9.00;;
69542;SDS011;56762;49.494;11.768;2022-10-22T04:53:34;14.75;;;8.50;;
69542;SDS011;56762;49.494;11.768;2022-10-22T04:56:07;13.07;;;7.60;;
69542;SDS011;56762;49.494;11.768;2022-10-22T04:58:37;13.97;;;8.23;;
69542;SDS011;56762;49.494;11.768;2022-10-22T05:01:09;15.07;;;7.78;;
69542;SDS011;56762;49.494;11.768;2022-10-22T05:03:39;14.45;;;8.77;;
69542;SDS011;56762;49.494;11.768;2022-10-22T05:06:08;13.50;;;7.88;;
69542;SDS011;56762;49.494;11.768;2022-10-22T05:08:36;14.88;;;8.48;;
69542;SDS011;56762;49.494;11.768;2022-10-22T05:11:12;13.67;;;7.70;;
69542;SDS011;56762;49.494;11.768;2022-10-22T05:13:45;13.75;;;7.85;;
69542;SDS011;56762;49.494;11.768;2022-10-22T05:16:13;12.38;;;8.13;;
69542;SDS011;56762;49.494;11.768;2022-10-22T05:18:43;13.32;;;7.78;;
69542;SDS011;56762;49.494;11.768;2022-10-22T05:21:13;15.25;;;8.35;;
69542;SDS011;56762;49.494;11.768;2022-10-22T05:23:42;14.83;;;8.83;;
69542;SDS011;56762;49.494;11.768;2022-10-22T05:26:11;14.40;;;8.55;;
69542;SDS011;56762;49.494;11.768;2022-10-22T05:28:42;15.23;;;8.48;;
69542;SDS011;56762;49.494;11.768;2022-10-22T05:31:10;14.93;;;8.60;;
69542;SDS011;56762;49.494;11.768;2022-10-22T05:33:40;14.48;;;8.98;;
69542;SDS011;56762;49.494;11.768;2022-10-22T05:36:10;14.47;;;8.77;;
69542;SDS011;56762;49.494;11.768;2022-10-22T05:38:39;14.82;;;9.23;;
69542;SDS011;56762;49.494;11.768;2022-10-22T05:41:08;16.60;;;9.40;;
69542;SDS011;56762;49.494;11.768;2022-10-22T05:43:39;14.52;;;9.13;;
69542;SDS011;56762;49.494;11.768;2022-10-22T05:46:08;15.27;;;9.48;;
69542;SDS011;56762;49.494;11.768;2022-10-22T05:48:37;16.57;;;10.33;;
69542;SDS011;56762;49.494;11.768;2022-10-22T05:51:06;15.40;;;8.65;;
69542;SDS011;56762;49.494;11.768;2022-10-22T05:53:35;14.82;;;9.00;;
69542;SDS011;56762;49.494;11.768;2022-10-22T05:56:05;18.13;;;8.93;;
69542;SDS011;56762;49.494;11.768;2022-10-22T05:58:35;12.55;;;8.25;;
69542;SDS011;56762;49.494;11.768;2022-10-22T06:01:05;12.93;;;8.10;;
69542;SDS011;56762;49.494;11.768;2022-10-22T06:03:34;11.98;;;7.75;;
69542;SDS011;56762;49.494;11.768;2022-10-22T06:06:03;12.50;;;8.18;;
69542;SDS011;56762;49.494;11.768;2022-10-22T06:08:38;13.07;;;8.00;;
69542;SDS011;56762;49.494;11.768;2022-10-22T06:11:06;12.68;;;7.97;;
69542;SDS011;56762;49.494;11.768;2022-10-22T06:13:34;14.03;;;7.67;;
69542;SDS011;56762;49.494;11.768;2022-10-22T06:16:02;12.48;;;7.68;;
69542;SDS011;56762;49.494;11.768;2022-10-22T06:18:32;13.85;;;8.27;;
69542;SDS011;56762;49.494;11.768;2022-10-22T06:21:04;13.18;;;8.60;;
69542;SDS011;56762;49.494;11.768;2022-10-22T06:23:34;16.73;;;9.80;;
69542;SDS011;56762;49.494;11.768;2022-10-22T06:26:03;17.17;;;9.77;;
69542;SDS011;56762;49.494;11.768;2022-10-22T06:28:32;17.95;;;11.20;;
69542;SDS011;56762;49.494;11.768;2022-10-22T06:31:01;18.27;;;10.88;;
69542;SDS011;56762;49.494;11.768;2022-10-22T06:33:32;19.23;;;10.70;;
69542;SDS011;56762;49.494;11.768;2022-10-22T06:36:08;18.33;;;10.00;;
69542;SDS011;56762;49.494;11.768;2022-10-22T06:38:37;21.43;;;10.10;;
69542;SDS011;56762;49.494;11.768;2022-10-22T06:41:07;16.40;;;9.00;;
69542;SDS011;56762;49.494;11.768;2022-10-22T06:43:36;15.52;;;8.85;;
69542;SDS011;56762;49.494;11.768;2022-10-22T06:46:05;14.40;;;9.02;;
69542;SDS011;56762;49.494;11.768;2022-10-22T06:48:47;16.00;;;9.27;;
69542;SDS011;56762;49.494;11.768;2022-10-22T06:51:15;17.53;;;9.80;;
69542;SDS011;56762;49.494;11.768;2022-10-22T06:53:43;16.83;;;9.38;;
69542;SDS011;56762;49.494;11.768;2022-10-22T06:56:12;15.10;;;8.57;;
69542;SDS011;56762;49.494;11.768;2022-10-22T06:58:42;14.48;;;9.20;;
69542;SDS011;56762;49.494;11.768;2022-10-22T07:01:11;15.43;;;8.75;;
69542;SDS011;56762;49.494;11.768;2022-10-22T07:03:40;17.77;;;10.00;;
69542;SDS011;56762;49.494;11.768;2022-10-22T07:06:11;19.63;;;10.43;;
69542;SDS011;56762;49.494;11.768;2022-10-22T07:08:41;19.33;;;10.88;;
69542;SDS011;56762;49.494;11.768;2022-10-22T07:11:13;20.92;;;10.77;;
69542;SDS011;56762;49.494;11.768;2022-10-22T07:13:44;18.58;;;10.50;;
69542;SDS011;56762;49.494;11.768;2022-10-22T07:16:13;24.70;;;12.83;;
69542;SDS011;56762;49.494;11.768;2022-10-22T07:18:41;24.63;;;12.90;;
69542;SDS011;56762;49.494;11.768;2022-10-22T07:21:14;28.52;;;16.35;;
69542;SDS011;56762;49.494;11.768;2022-10-22T07:23:43;32.58;;;18.13;;
69542;SDS011;56762;49.494;11.768;2022-10-22T07:26:13;25.20;;;14.20;;
69542;SDS011;56762;49.494;11.768;2022-10-22T07:28:42;22.50;;;12.20;;
69542;SDS011;56762;49.494;11.768;2022-10-22T07:31:11;19.77;;;10.95;;
69542;SDS011;56762;49.494;11.768;2022-10-22T07:33:40;17.85;;;10.80;;
69542;SDS011;56762;49.494;11.768;2022-10-22T07:36:13;22.48;;;12.90;;
69542;SDS011;56762;49.494;11.768;2022-10-22T07:38:43;29.15;;;18.73;;
69542;SDS011;56762;49.494;11.768;2022-10-22T07:41:13;29.50;;;16.20;;
69542;SDS011;56762;49.494;11.768;2022-10-22T07:43:41;24.08;;;14.30;;
69542;SDS011;56762;49.494;11.768;2022-10-22T07:46:09;25.08;;;13.25;;
69542;SDS011;56762;49.494;11.768;2022-10-22T07:48:37;24.35;;;12.43;;
69542;SDS011;56762;49.494;11.768;2022-10-22T07:51:05;21.52;;;13.15;;
69542;SDS011;56762;49.494;11.768;2022-10-22T07:53:36;19.00;;;11.50;;
69542;SDS011;56762;49.494;11.768;2022-10-22T07:56:04;18.17;;;10.90;;
69542;SDS011;56762;49.494;11.768;2022-10-22T07:58:32;21.02;;;11.80;;
69542;SDS011;56762;49.494;11.768;2022-10-22T08:01:01;24.80;;;11.77;;
69542;SDS011;56762;49.494;11.768;2022-10-22T08:03:32;62.45;;;25.65;;
69542;SDS011;56762;49.494;11.768;2022-10-22T08:06:00;38.57;;;16.57;;
69542;SDS011;56762;49.494;11.768;2022-10-22T08:08:29;31.25;;;15.10;;
69542;SDS011;56762;49.494;11.768;2022-10-22T08:10:59;22.85;;;11.63;;
69542;SDS011;56762;49.494;11.768;2022-10-22T08:13:29;20.88;;;11.48;;
69542;SDS011;56762;49.494;11.768;2022-10-22T08:15:57;19.50;;;9.73;;
69542;SDS011;56762;49.494;11.768;2022-10-22T08:18:26;18.77;;;9.23;;
69542;SDS011;56762;49.494;11.768;2022-10-22T08:20:55;18.08;;;9.15;;
69542;SDS011;56762;49.494;11.768;2022-10-22T08:23:23;20.30;;;10.40;;
69542;SDS011;56762;49.494;11.768;2022-10-22T08:25:54;20.05;;;10.25;;
69542;SDS011;56762;49.494;11.768;2022-10-22T08:28:23;14.48;;;9.10;;
69542;SDS011;56762;49.494;11.768;2022-10-22T08:30:53;12.80;;;7.53;;
69542;SDS011;56762;49.494;11.768;2022-10-22T08:33:22;11.93;;;5.95;;
69542;SDS011;56762;49.494;11.768;2022-10-22T08:35:50;9.35;;;5.65;;
69542;SDS011;56762;49.494;11.768;2022-10-22T08:38:19;8.80;;;5.30;;
69542;SDS011;56762;49.494;11.768;2022-10-22T08:40:56;7.25;;;4.00;;
69542;SDS011;56762;49.494;11.768;2022-10-22T08:46:43;4.03;;;1.58;;
69542;SDS011;56762;49.494;11.768;2022-10-22T08:49:32;3.35;;;0.90;;
69542;SDS011;56762;49.494;11.768;2022-10-22T08:52:07;2.70;;;0.40;;
69542;SDS011;56762;49.494;11.768;2022-10-22T08:54:41;1.95;;;0.70;;
69542;SDS011;56762;49.494;11.768;2022-10-22T08:57:19;1.43;;;0.50;;
69542;SDS011;56762;49.494;11.768;2022-10-22T09:00:09;1.60;;;0.57;;
69542;SDS011;56762;49.494;11.768;2022-10-22T09:02:43;2.80;;;0.80;;
69542;SDS011;56762;49.494;11.768;2022-10-22T09:05:27;5.20;;;1.10;;
69542;SDS011;56762;49.494;11.768;2022-10-22T09:08:03;2.08;;;0.50;;
69542;SDS011;56762;49.494;11.768;2022-10-22T09:10:32;1.57;;;0.67;;
69542;SDS011;56762;49.494;11.768;2022-10-22T09:13:03;2.78;;;0.80;;
69542;SDS011;56762;49.494;11.768;2022-10-22T09:15:32;2.00;;;0.50;;
69542;SDS011;56762;49.494;11.768;2022-10-22T09:18:10;2.20;;;0.40;;
69542;SDS011;56762;49.494;11.768;2022-10-22T09:20:52;2.53;;;0.20;;
69542;SDS011;56762;49.494;11.768;2022-10-22T09:23:25;3.30;;;0.43;;
69542;SDS011;56762;49.494;11.768;2022-10-22T09:25:59;1.50;;;0.45;;
69542;SDS011;56762;49.494;11.768;2022-10-22T09:28:27;1.77;;;0.45;;
69542;SDS011;56762;49.494;11.768;2022-10-22T09:30:57;1.98;;;0.50;;
69542;SDS011;56762;49.494;11.768;2022-10-22T09:33:25;3.60;;;0.50;;
69542;SDS011;56762;49.494;11.768;2022-10-22T09:35:57;3.20;;;1.10;;
69542;SDS011;56762;49.494;11.768;2022-10-22T09:38:29;3.90;;;0.90;;
69542;SDS011;56762;49.494;11.768;2022-10-22T09:40:59;2.33;;;0.77;;
69542;SDS011;56762;49.494;11.768;2022-10-22T09:43:29;2.22;;;0.60;;
69542;SDS011;56762;49.494;11.768;2022-10-22T09:45:59;2.03;;;0.60;;
69542;SDS011;56762;49.494;11.768;2022-10-22T09:48:29;1.93;;;0.50;;
69542;SDS011;56762;49.494;11.768;2022-10-22T09:51:03;2.10;;;0.40;;
69542;SDS011;56762;49.494;11.768;2022-10-22T09:53:36;2.78;;;0.30;;
69542;SDS011;56762;49.494;11.768;2022-10-22T09:56:09;1.50;;;0.30;;
69542;SDS011;56762;49.494;11.768;2022-10-22T09:58:44;1.33;;;0.20;;
69542;SDS011;56762;49.494;11.768;2022-10-22T10:01:17;1.77;;;0.23;;
69542;SDS011;56762;49.494;11.768;2022-10-22T10:03:47;1.52;;;0.30;;
69542;SDS011;56762;49.494;11.768;2022-10-22T10:06:19;1.10;;;0.30;;
69542;SDS011;56762;49.494;11.768;2022-10-22T10:08:48;1.90;;;0.57;;
69542;SDS011;56762;49.494;11.768;2022-10-22T10:11:18;3.38;;;0.57;;
69542;SDS011;56762;49.494;11.768;2022-10-22T10:13:58;3.50;;;1.00;;
69542;SDS011;56762;49.494;11.768;2022-10-22T10:16:39;1.90;;;0.20;;
69542;SDS011;56762;49.494;11.768;2022-10-22T10:19:17;2.15;;;0.20;;
69542;SDS011;56762;49.494;11.768;2022-10-22T10:21:56;1.73;;;0.10;;
69542;SDS011;56762;49.494;11.768;2022-10-22T10:24:33;0.68;;;0.15;;
69542;SDS011;56762;49.494;11.768;2022-10-22T10:27:10;0.50;;;0.10;;
69542;SDS011;56762;49.494;11.768;2022-10-22T10:29:46;2.20;;;0.30;;
69542;SDS011;56762;49.494;11.768;2022-10-22T10:32:26;1.65;;;0.35;;
69542;SDS011;56762;49.494;11.768;2022-10-22T10:35:08;1.60;;;0.20;;
69542;SDS011;56762;49.494;11.768;2022-10-22T10:37:49;1.17;;;0.20;;
69542;SDS011;56762;49.494;11.768;2022-10-22T10:40:32;1.10;;;0.40;;
69542;SDS011;56762;49.494;11.768;2022-10-22T10:43:08;2.03;;;0.20;;
69542;SDS011;56762;49.494;11.768;2022-10-22T10:45:41;1.15;;;0.17;;
69542;SDS011;56762;49.494;11.768;2022-10-22T10:48:34;2.97;;;0.30;;
69542;SDS011;56762;49.494;11.768;2022-10-22T10:51:13;2.55;;;0.30;;
69542;SDS011;56762;49.494;11.768;2022-10-22T10:54:00;1.50;;;0.30;;
69542;SDS011;56762;49.494;11.768;2022-10-22T10:56:40;2.20;;;0.20;;
69542;SDS011;56762;49.494;11.768;2022-10-22T10:59:13;1.45;;;0.40;;
69542;SDS011;56762;49.494;11.768;2022-10-22T11:01:48;2.67;;;0.30;;
69542;SDS011;56762;49.494;11.768;2022-10-22T11:04:28;2.10;;;0.32;;
69542;SDS011;56762;49.494;11.768;2022-10-22T11:07:21;0.83;;;0.20;;
69542;SDS011;56762;49.494;11.768;2022-10-22T11:10:01;2.25;;;0.20;;
69542;SDS011;56762;49.494;11.768;2022-10-22T11:12:35;2.08;;;0.30;;
69542;SDS011;56762;49.494;11.768;2022-10-22T11:15:08;1.90;;;0.20;;
69542;SDS011;56762;49.494;11.768;2022-10-22T11:17:47;0.55;;;0.15;;
69542;SDS011;56762;49.494;11.768;2022-10-22T11:20:18;2.67;;;0.30;;
69542;SDS011;56762;49.494;11.768;2022-10-22T11:22:49;1.98;;;0.50;;
69542;SDS011;56762;49.494;11.768;2022-10-22T11:25:42;2.83;;;0.55;;
69542;SDS011;56762;49.494;11.768;2022-10-22T11:28:13;2.30;;;0.57;;
69542;SDS011;56762;49.494;11.768;2022-10-22T11:30:44;3.03;;;0.70;;
69542;SDS011;56762;49.494;11.768;2022-10-22T11:33:17;3.90;;;0.60;;
69542;SDS011;56762;49.494;11.768;2022-10-22T11:35:49;2.00;;;0.55;;
69542;SDS011;56762;49.494;11.768;2022-10-22T11:38:21;2.75;;;0.50;;
69542;SDS011;56762;49.494;11.768;2022-10-22T11:40:58;2.08;;;0.20;;
69542;SDS011;56762;49.494;11.768;2022-10-22T11:43:30;5.10;;;0.20;;
69542;SDS011;56762;49.494;11.768;2022-10-22T11:46:01;1.87;;;0.20;;
69542;SDS011;56762;49.494;11.768;2022-10-22T11:48:36;1.88;;;0.47;;
69542;SDS011;56762;49.494;11.768;2022-10-22T11:51:27;3.63;;;0.30;;
69542;SDS011;56762;49.494;11.768;2022-10-22T11:53:58;3.10;;;0.40;;
69542;SDS011;56762;49.494;11.768;2022-10-22T11:56:35;2.58;;;0.38;;
69542;SDS011;56762;49.494;11.768;2022-10-22T11:59:07;1.10;;;0.20;;
69542;SDS011;56762;49.494;11.768;2022-10-22T12:07:50;3.75;;;1.02;;
69542;SDS011;56762;49.494;11.768;2022-10-22T12:10:24;2.33;;;0.40;;
69542;SDS011;56762;49.494;11.768;2022-10-22T12:12:54;1.37;;;0.20;;
69542;SDS011;56762;49.494;11.768;2022-10-22T12:15:24;3.60;;;0.60;;
69542;SDS011;56762;49.494;11.768;2022-10-22T12:17:58;2.50;;;0.57;;
69542;SDS011;56762;49.494;11.768;2022-10-22T12:20:27;2.05;;;0.30;;
69542;SDS011;56762;49.494;11.768;2022-10-22T12:22:57;1.98;;;0.40;;
69542;SDS011;56762;49.494;11.768;2022-10-22T12:25:28;1.70;;;0.20;;
69542;SDS011;56762;49.494;11.768;2022-10-22T12:28:01;2.72;;;0.40;;
69542;SDS011;56762;49.494;11.768;2022-10-22T12:30:29;4.53;;;0.50;;
69542;SDS011;56762;49.494;11.768;2022-10-22T12:33:00;2.38;;;0.70;;
69542;SDS011;56762;49.494;11.768;2022-10-22T12:35:29;2.00;;;0.38;;
69542;SDS011;56762;49.494;11.768;2022-10-22T12:38:01;1.90;;;0.27;;
69542;SDS011;56762;49.494;11.768;2022-10-22T12:40:32;2.50;;;0.45;;
69542;SDS011;56762;49.494;11.768;2022-10-22T12:43:03;4.50;;;0.70;;
69542;SDS011;56762;49.494;11.768;2022-10-22T12:45:37;4.43;;;1.30;;
69542;SDS011;56762;49.494;11.768;2022-10-22T12:48:07;9.85;;;3.50;;
69542;SDS011;56762;49.494;11.768;2022-10-22T12:50:42;9.47;;;4.13;;
69542;SDS011;56762;49.494;11.768;2022-10-22T12:53:14;6.05;;;2.10;;
69542;SDS011;56762;49.494;11.768;2022-10-22T12:55:45;1.95;;;0.45;;
69542;SDS011;56762;49.494;11.768;2022-10-22T12:58:17;3.17;;;0.38;;
69542;SDS011;56762;49.494;11.768;2022-10-22T13:00:46;0.80;;;0.20;;
69542;SDS011;56762;49.494;11.768;2022-10-22T13:03:23;3.73;;;0.20;;
69542;SDS011;56762;49.494;11.768;2022-10-22T13:05:53;1.10;;;0.20;;
69542;SDS011;56762;49.494;11.768;2022-10-22T13:08:25;3.63;;;0.40;;
69542;SDS011;56762;49.494;11.768;2022-10-22T13:10:54;2.67;;;0.30;;
69542;SDS011;56762;49.494;11.768;2022-10-22T13:13:32;8.63;;;2.72;;
69542;SDS011;56762;49.494;11.768;2022-10-22T13:16:13;3.50;;;0.50;;
69542;SDS011;56762;49.494;11.768;2022-10-22T13:18:45;1.50;;;0.20;;
69542;SDS011;56762;49.494;11.768;2022-10-22T13:21:24;3.50;;;0.50;;
69542;SDS011;56762;49.494;11.768;2022-10-22T13:23:56;2.15;;;0.40;;
69542;SDS011;56762;49.494;11.768;2022-10-22T13:26:29;2.60;;;0.20;;
69542;SDS011;56762;49.494;11.768;2022-10-22T13:29:00;1.17;;;0.20;;
69542;SDS011;56762;49.494;11.768;2022-10-22T13:31:29;2.08;;;0.30;;
69542;SDS011;56762;49.494;11.768;2022-10-22T13:33:59;3.33;;;0.30;;
69542;SDS011;56762;49.494;11.768;2022-10-22T13:36:36;2.88;;;0.40;;
69542;SDS011;56762;49.494;11.768;2022-10-22T13:39:09;3.78;;;1.35;;
69542;SDS011;56762;49.494;11.768;2022-10-22T13:41:39;4.13;;;1.20;;
69542;SDS011;56762;49.494;11.768;2022-10-22T13:44:07;2.53;;;0.70;;
69542;SDS011;56762;49.494;11.768;2022-10-22T13:46:35;2.33;;;0.60;;
69542;SDS011;56762;49.494;11.768;2022-10-22T13:49:09;4.45;;;0.80;;
69542;SDS011;56762;49.494;11.768;2022-10-22T13:51:41;3.78;;;0.70;;
69542;SDS011;56762;49.494;11.768;2022-10-22T13:54:13;3.60;;;0.40;;
69542;SDS011;56762;49.494;11.768;2022-10-22T13:56:44;1.58;;;0.35;;
69542;SDS011;56762;49.494;11.768;2022-10-22T13:59:13;0.98;;;0.10;;
69542;SDS011;56762;49.494;11.768;2022-10-22T14:01:48;1.40;;;0.13;;
69542;SDS011;56762;49.494;11.768;2022-10-22T14:04:15;3.05;;;0.30;;
69542;SDS011;56762;49.494;11.768;2022-10-22T14:06:44;1.83;;;0.60;;
69542;SDS011;56762;49.494;11.768;2022-10-22T14:09:14;1.75;;;0.65;;
69542;SDS011;56762;49.494;11.768;2022-10-22T14:11:43;2.03;;;0.22;;
69542;SDS011;56762;49.494;11.768;2022-10-22T14:14:11;0.60;;;0.10;;
69542;SDS011;56762;49.494;11.768;2022-10-22T14:16:42;1.67;;;0.17;;
69542;SDS011;56762;49.494;11.768;2022-10-22T14:19:12;1.87;;;0.20;;
69542;SDS011;56762;49.494;11.768;2022-10-22T14:21:43;1.45;;;0.10;;
69542;SDS011;56762;49.494;11.768;2022-10-22T14:24:11;4.10;;;0.40;;
69542;SDS011;56762;49.494;11.768;2022-10-22T14:26:40;1.27;;;0.20;;
69542;SDS011;56762;49.494;11.768;2022-10-22T14:29:08;1.20;;;0.20;;
69542;SDS011;56762;49.494;11.768;2022-10-22T14:31:37;3.53;;;0.20;;
69542;SDS011;56762;49.494;11.768;2022-10-22T14:34:11;1.73;;;0.50;;
69542;SDS011;56762;49.494;11.768;2022-10-22T14:36:40;0.95;;;0.28;;
69542;SDS011;56762;49.494;11.768;2022-10-22T14:39:10;1.63;;;0.30;;
69542;SDS011;56762;49.494;11.768;2022-10-22T14:41:42;3.85;;;1.10;;
69542;SDS011;56762;49.494;11.768;2022-10-22T14:44:10;3.60;;;0.97;;
69542;SDS011;56762;49.494;11.768;2022-10-22T14:46:40;1.75;;;0.50;;
69542;SDS011;56762;49.494;11.768;2022-10-22T14:49:11;2.13;;;0.60;;
69542;SDS011;56762;49.494;11.768;2022-10-22T14:51:40;3.92;;;1.08;;
69542;SDS011;56762;49.494;11.768;2022-10-22T14:54:08;5.50;;;1.45;;
69542;SDS011;56762;49.494;11.768;2022-10-22T14:56:36;4.20;;;0.97;;
69542;SDS011;56762;49.494;11.768;2022-10-22T14:59:07;3.75;;;0.70;;
69542;SDS011;56762;49.494;11.768;2022-10-22T15:01:36;2.53;;;0.80;;
69542;SDS011;56762;49.494;11.768;2022-10-22T15:04:07;4.05;;;0.60;;